createdAt,value
2023-04-11T00:01:30.039Z,4.25
2023-04-11T00:04:45.674Z,4.19
2023-04-11T00:07:54.532Z,4.14
2023-04-11T00:11:01.163Z,4.17
2023-04-11T00:14:12.084Z,4.13
2023-04-11T00:17:19.510Z,3.73
2023-04-11T00:20:25.956Z,3.57
2023-04-11T00:23:35.718Z,3.49
2023-04-11T00:26:41.726Z,3.13
2023-04-11T00:29:53.145Z,2.60
2023-04-11T00:32:59.161Z,2.33
2023-04-11T00:36:09.633Z,2.21
2023-04-11T00:39:19.127Z,2.11
2023-04-11T00:42:26.061Z,1.94
2023-04-11T00:45:32.434Z,1.80
2023-04-11T00:48:39.956Z,1.76
2023-04-11T00:51:47.652Z,1.74
2023-04-11T00:54:57.746Z,1.71
2023-04-11T00:58:04.759Z,1.61
2023-04-11T01:01:14.860Z,1.53
2023-04-11T01:04:21.661Z,1.65
2023-04-11T01:07:29.340Z,1.76
2023-04-11T01:10:38.938Z,1.85
2023-04-11T01:13:56.777Z,2.13
2023-04-11T01:17:05.408Z,2.32
2023-04-11T01:20:13.240Z,2.25
2023-04-11T01:23:28.044Z,2.06
2023-04-11T01:26:34.090Z,2.03
2023-04-11T01:29:44.580Z,2.13
2023-04-11T01:32:51.036Z,2.10
2023-04-11T01:35:58.098Z,1.91
2023-04-11T01:39:07.127Z,1.69
2023-04-11T01:42:15.979Z,1.55
2023-04-11T01:45:23.475Z,1.39
2023-04-11T01:48:31.695Z,1.35
2023-04-11T01:51:41.451Z,1.45
2023-04-11T01:54:52.082Z,1.67
2023-04-11T01:57:59.145Z,1.65
2023-04-11T02:01:06.025Z,1.73
2023-04-11T02:04:12.208Z,1.87
2023-04-11T02:07:21.279Z,1.73
2023-04-11T02:10:38.493Z,1.83
2023-04-11T02:13:45.224Z,1.61
2023-04-11T02:16:56.041Z,1.42
2023-04-11T02:20:11.978Z,1.37
2023-04-11T02:23:22.165Z,1.44
2023-04-11T02:26:32.968Z,1.37
2023-04-11T02:29:41.964Z,1.44
2023-04-11T02:32:49.707Z,1.34
2023-04-11T02:35:55.919Z,1.26
2023-04-11T02:39:02.817Z,1.09
2023-04-11T02:42:11.575Z,1.10
2023-04-11T02:45:18.379Z,1.14
2023-04-11T02:48:24.296Z,1.12
2023-04-11T02:51:31.538Z,1.01
2023-04-11T02:54:37.721Z,1.01
2023-04-11T02:57:47.247Z,1.07
2023-04-11T03:00:56.544Z,0.96
2023-04-11T03:04:04.088Z,0.93
2023-04-11T03:07:28.312Z,0.84
2023-04-11T03:10:37.495Z,0.71
2023-04-11T03:13:47.506Z,0.57
2023-04-11T03:16:54.272Z,0.47
2023-04-11T03:20:01.290Z,0.35
2023-04-11T03:23:11.051Z,0.40
2023-04-11T03:26:18.938Z,0.29
2023-04-11T03:29:29.130Z,0.19
2023-04-11T03:32:44.462Z,-0.01
2023-04-11T03:35:51.377Z,-0.08
2023-04-11T03:39:00.709Z,0.01
2023-04-11T03:42:08.146Z,0.27
2023-04-11T03:45:17.577Z,0.37
2023-04-11T03:48:26.764Z,0.60
2023-04-11T03:51:38.205Z,0.76
2023-04-11T03:54:47.889Z,0.76
2023-04-11T03:57:59.124Z,1.03
2023-04-11T04:01:13.127Z,0.83
2023-04-11T04:04:19.806Z,1.10
2023-04-11T04:07:34.106Z,1.25
2023-04-11T04:10:49.875Z,1.22
2023-04-11T04:13:56.811Z,1.26
2023-04-11T04:17:06.052Z,1.27
2023-04-11T04:20:15.092Z,1.26
2023-04-11T04:23:33.309Z,1.28
2023-04-11T04:27:02.268Z,1.39
2023-04-11T04:30:29.191Z,2.19
2023-04-11T04:33:49.864Z,2.51
2023-04-11T04:37:02.353Z,2.87
2023-04-11T04:40:20.904Z,2.97
2023-04-11T04:43:36.958Z,3.15
2023-04-11T04:47:13.044Z,3.38
2023-04-11T04:50:22.033Z,3.47
2023-04-11T04:53:35.006Z,3.65
2023-04-11T04:56:41.811Z,3.59
2023-04-11T04:59:50.513Z,3.40
2023-04-11T05:02:57.904Z,3.22
2023-04-11T05:06:12.764Z,3.58
2023-04-11T05:09:24.525Z,3.98
2023-04-11T05:12:35.945Z,4.16
2023-04-11T05:15:51.671Z,4.09
2023-04-11T05:19:05.108Z,3.79
2023-04-11T05:22:16.805Z,4.16
2023-04-11T05:25:29.336Z,4.51
2023-04-11T05:28:35.281Z,4.57
2023-04-11T05:31:46.443Z,5.11
2023-04-11T05:34:59.468Z,5.40
2023-04-11T05:38:17.982Z,6.20
2023-04-11T05:41:24.280Z,6.64
2023-04-11T05:44:31.060Z,7.18
2023-04-11T05:47:37.192Z,7.55
2023-04-11T05:50:44.346Z,7.45
2023-04-11T05:53:52.973Z,6.03
2023-04-11T05:56:59.770Z,5.56
2023-04-11T06:00:16.990Z,5.68
2023-04-11T06:03:23.926Z,6.21
2023-04-11T06:06:29.958Z,5.89
2023-04-11T06:09:39.673Z,5.66
2023-04-11T06:12:45.775Z,5.66
2023-04-11T06:15:52.986Z,5.72
2023-04-11T06:18:59.032Z,5.94
2023-04-11T06:22:11.909Z,5.82
2023-04-11T06:25:20.891Z,5.24
2023-04-11T06:28:27.765Z,4.93
2023-04-11T06:31:33.945Z,4.73
2023-04-11T06:34:42.517Z,4.70
2023-04-11T06:37:48.472Z,4.94
2023-04-11T06:40:58.660Z,5.28
2023-04-11T06:44:04.665Z,5.22
2023-04-11T06:47:11.576Z,5.27
2023-04-11T06:50:17.855Z,5.12
2023-04-11T06:53:24.689Z,5.06
2023-04-11T06:56:37.442Z,5.71
2023-04-11T06:59:44.288Z,5.10
2023-04-11T07:02:51.125Z,5.29
2023-04-11T07:05:58.114Z,5.25
2023-04-11T07:09:04.181Z,5.32
2023-04-11T07:12:13.695Z,5.42
2023-04-11T07:15:20.186Z,5.69
2023-04-11T07:18:27.763Z,6.15
2023-04-11T07:21:34.450Z,6.96
2023-04-11T07:24:43.889Z,6.82
2023-04-11T07:27:53.689Z,7.32
2023-04-11T07:31:01.034Z,7.69
2023-04-11T07:34:07.170Z,8.53
2023-04-11T07:37:14.020Z,7.89
2023-04-11T07:40:20.140Z,8.07
2023-04-11T07:43:31.656Z,7.89
2023-04-11T07:46:38.038Z,7.75
2023-04-11T07:49:47.381Z,7.09
2023-04-11T07:52:58.977Z,7.11
2023-04-11T07:56:05.785Z,7.09
2023-04-11T07:59:16.271Z,6.90
2023-04-11T08:02:23.709Z,7.17
2023-04-11T08:05:29.878Z,6.96
2023-04-11T08:08:36.733Z,6.54
2023-04-11T08:11:42.698Z,6.96
2023-04-11T08:14:54.598Z,7.14
2023-04-11T08:18:00.633Z,7.21
2023-04-11T08:21:21.226Z,7.55
2023-04-11T08:24:27.350Z,8.28
2023-04-11T08:27:34.200Z,9.06
2023-04-11T08:30:43.035Z,9.05
2023-04-11T08:33:49.937Z,9.32
2023-04-11T08:36:56.287Z,9.55
2023-04-11T08:40:12.001Z,9.81
2023-04-11T08:43:22.704Z,10.17
2023-04-11T08:46:36.563Z,9.88
2023-04-11T08:49:42.722Z,10.71
2023-04-11T08:52:56.201Z,10.93
2023-04-11T08:56:05.034Z,10.98
2023-04-11T08:59:12.033Z,11.18
2023-04-11T09:02:21.147Z,11.51
2023-04-11T09:05:29.842Z,10.43
2023-04-11T09:08:42.245Z,11.41
2023-04-11T09:11:56.806Z,11.61
2023-04-11T09:15:21.910Z,12.13
2023-04-11T09:18:39.954Z,12.05
2023-04-11T09:21:53.455Z,11.94
2023-04-11T09:25:06.873Z,12.88
2023-04-11T09:28:15.983Z,13.45
2023-04-11T09:31:24.159Z,12.65
2023-04-11T09:34:33.107Z,13.22
2023-04-11T09:37:49.131Z,13.66
2023-04-11T09:41:01.017Z,12.80
2023-04-11T09:44:40.090Z,13.44
2023-04-11T09:47:46.975Z,13.43
2023-04-11T09:51:03.128Z,12.78
2023-04-11T09:54:10.298Z,12.87
2023-04-11T09:57:18.117Z,12.98
2023-04-11T10:00:29.672Z,12.81
2023-04-11T10:03:38.898Z,13.82
2023-04-11T10:07:06.727Z,13.52
2023-04-11T10:10:20.159Z,12.53
2023-04-11T10:13:45.524Z,12.80
2023-04-11T10:17:21.251Z,12.86
2023-04-11T10:20:49.984Z,13.44
2023-04-11T10:24:18.207Z,14.11
2023-04-11T10:27:53.759Z,13.44
2023-04-11T10:31:07.242Z,13.47
2023-04-11T10:34:17.961Z,13.17
2023-04-11T10:37:37.096Z,13.43
2023-04-11T10:41:19.926Z,14.16
2023-04-11T10:44:26.708Z,13.97
2023-04-11T10:47:32.875Z,12.48
2023-04-11T10:50:44.204Z,13.06
2023-04-11T10:53:50.322Z,13.88
2023-04-11T10:57:09.051Z,13.72
2023-04-11T11:00:17.535Z,13.74
2023-04-11T11:03:29.788Z,13.08
2023-04-11T11:06:47.366Z,13.27
2023-04-11T11:10:08.162Z,13.89
2023-04-11T11:13:20.072Z,13.90
2023-04-11T11:16:29.616Z,13.64
2023-04-11T11:19:36.053Z,14.16
2023-04-11T11:22:42.895Z,14.13
2023-04-11T11:25:56.995Z,13.85
2023-04-11T11:29:07.033Z,14.07
2023-04-11T11:32:28.946Z,14.37
2023-04-11T11:35:36.476Z,14.36
2023-04-11T11:38:42.725Z,13.89
2023-04-11T11:41:49.811Z,13.31
2023-04-11T11:45:16.514Z,13.53
2023-04-11T11:48:26.526Z,14.77
2023-04-11T11:51:44.023Z,15.37
2023-04-11T11:54:50.890Z,15.82
2023-04-11T11:58:01.708Z,15.00
2023-04-11T12:01:11.286Z,14.75
2023-04-11T12:04:17.699Z,14.42
2023-04-11T12:07:25.384Z,14.51
2023-04-11T12:10:41.717Z,15.35
2023-04-11T12:13:48.834Z,15.60
2023-04-11T12:16:59.981Z,15.28
2023-04-11T12:20:12.979Z,15.17
2023-04-11T12:23:19.072Z,14.98
2023-04-11T12:26:26.293Z,15.21
2023-04-11T12:29:32.467Z,15.38
2023-04-11T12:32:42.049Z,15.58
2023-04-11T12:35:48.193Z,15.48
2023-04-11T12:38:55.289Z,16.06
2023-04-11T12:42:01.669Z,16.24
2023-04-11T12:45:11.194Z,15.78
2023-04-11T12:48:19.699Z,15.05
2023-04-11T12:51:26.609Z,15.03
2023-04-11T12:54:32.693Z,15.04
2023-04-11T12:57:40.034Z,15.26
2023-04-11T13:00:46.390Z,15.55
2023-04-11T13:03:56.214Z,15.38
2023-04-11T13:07:03.779Z,14.73
2023-04-11T13:10:14.476Z,14.73
2023-04-11T13:13:20.539Z,14.76
2023-04-11T13:16:27.542Z,14.77
2023-04-11T13:19:36.197Z,14.55
2023-04-11T13:22:44.998Z,14.72
2023-04-11T13:25:51.132Z,14.51
2023-04-11T13:28:58.201Z,14.48
2023-04-11T13:32:08.036Z,14.30
2023-04-11T13:35:17.543Z,13.99
2023-04-11T13:38:23.640Z,13.87
2023-04-11T13:41:32.352Z,13.57
2023-04-11T13:44:41.000Z,13.17
2023-04-11T13:47:47.982Z,13.21
2023-04-11T13:51:00.261Z,13.10
2023-04-11T13:54:07.615Z,12.66
2023-04-11T13:57:13.632Z,12.65
2023-04-11T14:00:22.873Z,12.75
2023-04-11T14:03:33.607Z,12.86
2023-04-11T14:06:43.649Z,12.85
2023-04-11T14:09:49.665Z,12.82
2023-04-11T14:12:56.549Z,12.69
2023-04-11T14:16:09.017Z,12.59
2023-04-11T14:19:16.715Z,12.45
2023-04-11T14:22:26.585Z,12.38
2023-04-11T14:25:33.597Z,12.09
2023-04-11T14:28:39.813Z,11.97
2023-04-11T14:31:47.466Z,11.71
2023-04-11T14:34:55.025Z,11.60
2023-04-11T14:38:06.014Z,11.30
2023-04-11T14:41:12.050Z,11.46
2023-04-11T14:44:19.188Z,11.23
2023-04-11T14:47:25.416Z,10.94
2023-04-11T14:50:32.364Z,10.88
2023-04-11T14:53:41.178Z,10.45
2023-04-11T14:56:48.519Z,10.16
2023-04-11T14:59:54.993Z,9.89
2023-04-11T15:03:02.162Z,9.67
2023-04-11T15:06:12.588Z,9.68
2023-04-11T15:09:22.799Z,9.50
2023-04-11T15:12:28.912Z,9.36
2023-04-11T15:15:36.432Z,9.21
2023-04-11T15:18:42.847Z,9.24
2023-04-11T15:21:49.651Z,9.10
2023-04-11T15:24:58.643Z,8.85
2023-04-11T15:28:05.711Z,8.78
2023-04-11T15:31:16.431Z,8.68
2023-04-11T15:34:23.692Z,8.64
2023-04-11T15:37:30.720Z,8.56
2023-04-11T15:40:41.596Z,8.57
2023-04-11T15:43:47.721Z,8.27
2023-04-11T15:46:54.705Z,8.30
2023-04-11T15:50:03.188Z,8.25
2023-04-11T15:53:10.309Z,8.28
2023-04-11T15:56:20.047Z,8.33
2023-04-11T15:59:31.009Z,8.31
2023-04-11T16:02:37.416Z,8.33
2023-04-11T16:05:47.697Z,8.12
2023-04-11T16:08:54.226Z,7.94
2023-04-11T16:12:04.575Z,7.84
2023-04-11T16:15:12.290Z,7.77
2023-04-11T16:18:19.363Z,7.75
2023-04-11T16:21:25.392Z,7.67
2023-04-11T16:24:32.695Z,7.69
2023-04-11T16:27:41.426Z,7.80
2023-04-11T16:30:48.291Z,7.44
2023-04-11T16:33:56.044Z,7.40
2023-04-11T16:37:04.172Z,7.33
2023-04-11T16:40:14.079Z,7.49
2023-04-11T16:43:23.616Z,7.38
2023-04-11T16:46:29.701Z,7.16
2023-04-11T16:49:36.824Z,7.14
2023-04-11T16:52:42.900Z,7.06
2023-04-11T16:55:50.088Z,6.54
2023-04-11T16:58:59.031Z,6.26
2023-04-11T17:02:06.226Z,6.21
2023-04-11T17:05:13.404Z,6.31
2023-04-11T17:08:21.174Z,6.01
2023-04-11T17:11:27.597Z,6.03
2023-04-11T17:14:38.888Z,6.05
2023-04-11T17:17:44.860Z,6.11
2023-04-11T17:20:51.764Z,6.11
2023-04-11T17:24:01.513Z,5.95
2023-04-11T17:27:11.962Z,5.88
2023-04-11T17:30:21.524Z,5.83
2023-04-11T17:33:28.351Z,5.86
2023-04-11T17:36:36.779Z,5.88
2023-04-11T17:39:44.045Z,5.82
2023-04-11T17:42:50.381Z,5.88
2023-04-11T17:45:59.952Z,5.70
2023-04-11T17:49:06.093Z,5.42
2023-04-11T17:52:13.037Z,5.47
2023-04-11T17:56:16.265Z,5.48
2023-04-11T17:59:54.031Z,5.36
2023-04-11T18:03:03.295Z,5.42
2023-04-11T18:06:11.528Z,5.46
2023-04-11T18:09:18.852Z,5.43
2023-04-11T18:12:29.558Z,5.44
2023-04-11T18:15:36.399Z,5.60
2023-04-11T18:18:46.194Z,5.63
2023-04-11T18:21:52.347Z,5.56
2023-04-11T18:25:02.385Z,5.44
2023-04-11T18:28:08.783Z,5.36
2023-04-11T18:31:16.017Z,5.52
2023-04-11T18:34:24.818Z,5.31
2023-04-11T18:37:32.495Z,5.76
2023-04-11T18:40:38.596Z,5.41
2023-04-11T18:43:46.358Z,5.42
2023-04-11T18:46:54.860Z,5.30
2023-04-11T18:50:06.625Z,5.34
2023-04-11T18:53:13.836Z,5.07
2023-04-11T18:56:21.866Z,5.36
2023-04-11T18:59:29.745Z,5.31
2023-04-11T19:02:37.284Z,5.18
2023-04-11T19:05:47.013Z,4.92
2023-04-11T19:08:54.367Z,4.94
2023-04-11T19:12:00.891Z,4.98
2023-04-11T19:15:10.773Z,4.90
2023-04-11T19:18:17.418Z,4.92
2023-04-11T19:21:27.761Z,4.98
2023-04-11T19:24:34.426Z,5.03
2023-04-11T19:27:42.766Z,4.96
2023-04-11T19:30:52.039Z,5.06
2023-04-11T19:33:59.604Z,5.15
2023-04-11T19:37:08.970Z,5.15
2023-04-11T19:40:16.929Z,5.20
2023-04-11T19:43:23.483Z,5.04
2023-04-11T19:46:31.187Z,5.11
2023-04-11T19:49:37.918Z,5.14
2023-04-11T19:52:48.108Z,5.20
2023-04-11T19:55:55.205Z,5.27
2023-04-11T19:59:02.519Z,5.29
2023-04-11T20:02:08.918Z,5.23
2023-04-11T20:05:18.393Z,5.25
2023-04-11T20:08:27.949Z,5.23
2023-04-11T20:11:36.959Z,5.25
2023-04-11T20:14:44.203Z,5.23
2023-04-11T20:17:51.179Z,5.09
2023-04-11T20:20:57.302Z,5.05
2023-04-11T20:24:09.797Z,4.99
2023-04-11T20:27:16.021Z,4.91
2023-04-11T20:30:23.108Z,4.98
2023-04-11T20:33:29.199Z,4.91
2023-04-11T20:36:36.346Z,4.88
2023-04-11T20:39:44.921Z,4.91
2023-04-11T20:42:51.774Z,4.82
2023-04-11T20:45:57.947Z,4.77
2023-04-11T20:49:05.338Z,4.69
2023-04-11T20:52:11.593Z,4.67
2023-04-11T20:55:21.197Z,4.65
2023-04-11T20:58:27.370Z,4.65
2023-04-11T21:01:34.945Z,4.41
2023-04-11T21:04:46.733Z,4.41
2023-04-11T21:07:54.797Z,4.38
2023-04-11T21:11:04.937Z,4.35
2023-04-11T21:14:11.793Z,4.33
2023-04-11T21:17:17.745Z,4.33
2023-04-11T21:20:29.951Z,4.19
2023-04-11T21:23:36.032Z,4.19
2023-04-11T21:26:58.413Z,4.11
2023-04-11T21:30:04.614Z,4.19
2023-04-11T21:33:13.056Z,4.13
2023-04-11T21:36:20.179Z,4.14
2023-04-11T21:39:32.737Z,4.19
2023-04-11T21:42:41.475Z,4.13
2023-04-11T21:45:48.272Z,4.08
2023-04-11T21:48:54.477Z,4.12
2023-04-11T21:52:01.619Z,3.97
2023-04-11T21:55:09.801Z,3.87
2023-04-11T21:58:29.119Z,3.78
2023-04-11T22:01:35.960Z,3.74
2023-04-11T22:05:04.090Z,3.70
2023-04-11T22:08:20.229Z,3.74
2023-04-11T22:11:27.528Z,3.58
2023-04-11T22:14:38.535Z,3.58
2023-04-11T22:17:54.890Z,3.48
2023-04-11T22:21:05.443Z,3.55
2023-04-11T22:24:12.411Z,3.51
2023-04-11T22:27:18.835Z,3.53
2023-04-11T22:30:30.889Z,3.58
2023-04-11T22:33:36.825Z,3.58
2023-04-11T22:36:50.342Z,3.54
2023-04-11T22:39:56.608Z,3.47
2023-04-11T22:43:10.071Z,3.48
2023-04-11T22:46:25.850Z,3.59
2023-04-11T22:49:32.815Z,3.43
2023-04-11T22:52:42.226Z,3.47
2023-04-11T22:55:49.367Z,3.43
2023-04-11T22:58:56.349Z,3.45
2023-04-11T23:02:05.937Z,3.25
2023-04-11T23:05:12.911Z,3.41
2023-04-11T23:08:20.978Z,3.40
2023-04-11T23:11:29.915Z,3.38
2023-04-11T23:14:36.630Z,3.38
2023-04-11T23:17:45.230Z,3.40
2023-04-11T23:20:53.331Z,3.44
2023-04-11T23:23:59.753Z,3.44
2023-04-11T23:27:07.254Z,3.51
2023-04-11T23:30:17.867Z,3.40
2023-04-11T23:33:27.891Z,3.27
2023-04-11T23:36:34.058Z,3.40
2023-04-11T23:39:41.419Z,3.44
2023-04-11T23:42:48.412Z,3.52
2023-04-11T23:45:57.233Z,3.49
2023-04-11T23:49:05.883Z,3.49
2023-04-11T23:52:15.485Z,3.55
2023-04-11T23:55:21.622Z,3.55
2023-04-11T23:58:28.410Z,3.60
